createdAt,value
2023-03-12T06:46:54.314Z,96084.38
2023-03-12T06:49:43.483Z,96087.53
2023-03-12T06:55:15.904Z,96073.13
2023-03-12T06:57:45.215Z,96055.56
2023-03-12T07:10:53.439Z,96054.13
2023-03-12T07:16:41.287Z,96048.44
2023-03-12T07:19:15.127Z,96036.28
2023-03-12T07:21:48.739Z,96024.06
2023-03-12T07:24:16.831Z,96039.13
2023-03-12T07:26:53.236Z,96032.31
2023-03-12T07:37:32.716Z,96028.00
2023-03-12T07:40:10.099Z,96015.34
2023-03-12T07:42:38.307Z,96014.09
2023-03-12T07:45:08.220Z,96015.34
2023-03-12T07:47:35.592Z,96017.09
2023-03-12T07:50:17.122Z,96005.81
2023-03-12T07:52:48.041Z,96006.94
2023-03-12T07:55:18.349Z,96004.06
2023-03-12T07:57:47.261Z,96006.91
2023-03-12T08:03:32.186Z,95985.19
2023-03-12T08:06:12.776Z,95992.63
2023-03-12T08:08:45.519Z,95991.97
2023-03-12T08:13:58.632Z,95976.28
2023-03-12T08:16:38.193Z,95985.66
2023-03-12T08:19:08.698Z,95984.38
2023-03-12T08:33:47.010Z,95954.91
2023-03-12T08:36:16.783Z,95943.50
2023-03-12T08:38:54.467Z,95937.91
2023-03-12T08:41:23.586Z,95930.44
2023-03-12T08:43:56.209Z,95922.50
2023-03-12T09:23:37.824Z,95872.97
2023-03-12T09:26:04.988Z,95866.94
2023-03-12T09:28:32.282Z,95858.22
2023-03-12T09:31:02.242Z,95864.50
2023-03-12T09:33:29.451Z,95856.09
2023-03-12T09:35:58.893Z,95846.44
2023-03-12T09:38:26.389Z,95835.97
2023-03-12T09:40:53.543Z,95840.59
2023-03-12T09:43:32.583Z,95838.69
2023-03-12T09:46:07.791Z,95834.41
2023-03-12T09:48:36.194Z,95827.88
2023-03-12T09:51:08.342Z,95825.53
2023-03-12T09:53:52.279Z,95815.19
2023-03-12T09:56:21.516Z,95809.28
2023-03-12T09:58:49.432Z,95805.03
2023-03-12T10:01:20.392Z,95799.69
2023-03-12T10:03:55.208Z,95796.78
2023-03-12T10:06:25.498Z,95799.47
2023-03-12T10:08:52.472Z,95775.88
2023-03-12T10:11:39.324Z,95781.94
2023-03-12T10:14:33.020Z,95780.25
2023-03-12T10:17:04.334Z,95767.06
2023-03-12T10:19:31.791Z,95774.38
2023-03-12T10:22:34.651Z,95754.84
2023-03-12T10:25:06.760Z,95755.63
2023-03-12T10:27:38.182Z,95750.25
2023-03-12T10:30:14.394Z,95743.50
2023-03-12T10:32:42.595Z,95741.03
2023-03-12T10:35:15.829Z,95743.41
2023-03-12T10:38:18.948Z,95743.84
2023-03-12T10:40:46.194Z,95738.91
2023-03-12T10:43:13.395Z,95731.59
2023-03-12T10:45:59.104Z,95733.97
2023-03-12T10:48:29.530Z,95734.88
2023-03-12T10:51:07.856Z,95721.63
2023-03-12T10:53:45.036Z,95720.38
2023-03-12T10:56:15.158Z,95716.66
2023-03-12T10:58:47.367Z,95718.59
2023-03-12T11:04:16.957Z,95721.16
2023-03-12T11:07:03.382Z,95702.97
2023-03-12T11:09:41.377Z,95702.75
2023-03-12T11:39:20.250Z,95816.41
2023-03-12T11:45:33.495Z,95846.09
2023-03-12T11:51:44.466Z,95834.59
2023-03-12T11:54:40.851Z,95875.38
2023-03-12T12:00:22.110Z,95865.56
2023-03-12T12:22:06.134Z,95912.31
2023-03-12T12:27:27.904Z,95933.91
2023-03-12T12:30:17.673Z,95934.84
2023-03-12T12:33:06.998Z,95947.84
2023-03-12T12:35:36.153Z,95945.38
2023-03-12T12:41:12.015Z,95967.81
2023-03-12T12:43:40.487Z,95965.19
2023-03-12T12:46:29.667Z,95981.25
2023-03-12T12:48:59.859Z,96001.06
2023-03-12T12:51:31.670Z,95996.03
2023-03-12T12:54:08.017Z,95987.28
2023-03-12T12:56:43.252Z,95986.28
2023-03-12T12:59:27.453Z,96010.59
2023-03-12T13:01:56.348Z,96010.72
2023-03-12T13:04:39.052Z,96015.06
2023-03-12T13:07:20.757Z,96033.81
2023-03-12T13:09:50.680Z,96050.41
2023-03-12T13:12:25.457Z,96038.50
2023-03-12T13:14:59.657Z,96051.06
2023-03-12T13:17:45.442Z,96072.94
2023-03-12T13:20:24.514Z,96111.41
2023-03-12T13:23:10.172Z,96106.41
2023-03-12T13:25:37.079Z,96122.47
2023-03-12T13:28:44.497Z,96105.22
2023-03-12T13:31:19.105Z,96180.59
2023-03-12T13:33:56.404Z,96096.25
2023-03-12T13:36:28.791Z,96094.44
2023-03-12T13:38:58.062Z,96129.31
2023-03-12T13:41:33.215Z,96155.13
2023-03-12T16:04:04.886Z,96585.84
2023-03-12T16:06:32.003Z,96591.41
2023-03-12T16:54:19.428Z,96720.69
2023-03-12T16:56:52.323Z,96752.47
2023-03-12T16:59:24.708Z,96751.66
2023-03-12T17:01:51.975Z,96763.63
2023-03-12T17:04:19.282Z,96770.53
2023-03-12T17:06:46.408Z,96794.38
2023-03-12T17:09:15.180Z,96807.41
2023-03-12T17:11:42.353Z,96801.28
2023-03-12T17:14:19.198Z,96812.13
2023-03-12T17:16:47.259Z,96814.22
2023-03-12T17:19:18.790Z,96811.81
2023-03-12T17:21:54.197Z,96829.88
2023-03-12T17:24:28.536Z,96825.63
2023-03-12T17:26:56.913Z,96830.69
2023-03-12T17:29:29.693Z,96841.84
2023-03-12T17:31:59.559Z,96856.69
2023-03-12T17:37:47.530Z,96853.84
2023-03-12T17:49:01.123Z,96891.16
2023-03-12T18:02:52.762Z,96900.69
2023-03-12T18:06:13.434Z,96910.47
2023-03-12T18:08:40.598Z,96911.84
2023-03-12T18:11:12.006Z,96925.69
2023-03-12T18:13:42.414Z,96923.03
2023-03-12T18:16:10.003Z,96945.03
2023-03-12T18:18:37.326Z,96944.22
